sensor_id;sensor_type;location;lat;lon;timestamp;P1;durP1;ratioP1;P2;durP2;ratioP2
73132;SDS011;61320;52.008;4.530;2023-06-26T00:01:58;6.90;;;6.90;;
73132;SDS011;61320;52.008;4.530;2023-06-26T00:04:24;7.31;;;7.31;;
73132;SDS011;61320;52.008;4.530;2023-06-26T00:06:49;6.67;;;6.67;;
73132;SDS011;61320;52.008;4.530;2023-06-26T00:09:15;7.05;;;7.05;;
73132;SDS011;61320;52.008;4.530;2023-06-26T00:11:40;7.46;;;7.46;;
73132;SDS011;61320;52.008;4.530;2023-06-26T00:14:06;7.52;;;7.52;;
73132;SDS011;61320;52.008;4.530;2023-06-26T00:16:31;7.48;;;7.48;;
73132;SDS011;61320;52.008;4.530;2023-06-26T00:18:57;7.45;;;7.45;;
73132;SDS011;61320;52.008;4.530;2023-06-26T00:21:24;7.46;;;7.46;;
73132;SDS011;61320;52.008;4.530;2023-06-26T00:23:50;7.20;;;7.20;;
73132;SDS011;61320;52.008;4.530;2023-06-26T00:26:16;7.33;;;7.33;;
73132;SDS011;61320;52.008;4.530;2023-06-26T00:28:42;6.96;;;6.96;;
73132;SDS011;61320;52.008;4.530;2023-06-26T00:31:07;7.35;;;7.35;;
73132;SDS011;61320;52.008;4.530;2023-06-26T00:33:32;7.37;;;7.37;;
73132;SDS011;61320;52.008;4.530;2023-06-26T00:35:58;6.92;;;6.90;;
73132;SDS011;61320;52.008;4.530;2023-06-26T00:38:24;6.50;;;6.50;;
73132;SDS011;61320;52.008;4.530;2023-06-26T00:40:50;6.68;;;6.68;;
73132;SDS011;61320;52.008;4.530;2023-06-26T00:43:15;6.54;;;6.54;;
73132;SDS011;61320;52.008;4.530;2023-06-26T00:45:41;6.46;;;6.46;;
73132;SDS011;61320;52.008;4.530;2023-06-26T00:48:06;6.32;;;6.31;;
73132;SDS011;61320;52.008;4.530;2023-06-26T00:50:32;5.84;;;5.82;;
73132;SDS011;61320;52.008;4.530;2023-06-26T00:52:57;6.14;;;6.13;;
73132;SDS011;61320;52.008;4.530;2023-06-26T00:55:26;6.10;;;6.05;;
73132;SDS011;61320;52.008;4.530;2023-06-26T00:57:52;6.36;;;6.27;;
73132;SDS011;61320;52.008;4.530;2023-06-26T01:00:18;6.12;;;5.96;;
73132;SDS011;61320;52.008;4.530;2023-06-26T01:02:44;6.25;;;6.17;;
73132;SDS011;61320;52.008;4.530;2023-06-26T01:05:09;6.10;;;6.08;;
73132;SDS011;61320;52.008;4.530;2023-06-26T01:07:38;6.43;;;6.39;;
73132;SDS011;61320;52.008;4.530;2023-06-26T01:10:05;6.32;;;6.24;;
73132;SDS011;61320;52.008;4.530;2023-06-26T01:12:34;6.58;;;6.40;;
73132;SDS011;61320;52.008;4.530;2023-06-26T01:15:01;6.47;;;6.37;;
73132;SDS011;61320;52.008;4.530;2023-06-26T01:17:27;6.27;;;6.25;;
73132;SDS011;61320;52.008;4.530;2023-06-26T01:19:57;6.55;;;6.50;;
73132;SDS011;61320;52.008;4.530;2023-06-26T01:25:33;7.07;;;6.86;;
73132;SDS011;61320;52.008;4.530;2023-06-26T01:28:06;7.39;;;7.17;;
73132;SDS011;61320;52.008;4.530;2023-06-26T01:30:32;6.85;;;6.79;;
73132;SDS011;61320;52.008;4.530;2023-06-26T01:33:01;6.92;;;6.90;;
73132;SDS011;61320;52.008;4.530;2023-06-26T01:35:28;6.56;;;6.56;;
73132;SDS011;61320;52.008;4.530;2023-06-26T01:38:10;6.79;;;6.79;;
73132;SDS011;61320;52.008;4.530;2023-06-26T01:40:48;6.58;;;6.57;;
73132;SDS011;61320;52.008;4.530;2023-06-26T01:46:16;6.84;;;6.84;;
73132;SDS011;61320;52.008;4.530;2023-06-26T01:51:47;6.77;;;6.74;;
73132;SDS011;61320;52.008;4.530;2023-06-26T01:54:20;6.58;;;6.57;;
73132;SDS011;61320;52.008;4.530;2023-06-26T01:56:51;6.43;;;6.43;;
73132;SDS011;61320;52.008;4.530;2023-06-26T01:59:19;6.88;;;6.85;;
73132;SDS011;61320;52.008;4.530;2023-06-26T02:01:47;6.74;;;6.66;;
73132;SDS011;61320;52.008;4.530;2023-06-26T02:04:13;6.78;;;6.75;;
73132;SDS011;61320;52.008;4.530;2023-06-26T02:06:38;6.87;;;6.82;;
73132;SDS011;61320;52.008;4.530;2023-06-26T02:09:04;6.85;;;6.79;;
73132;SDS011;61320;52.008;4.530;2023-06-26T02:11:29;7.03;;;6.87;;
73132;SDS011;61320;52.008;4.530;2023-06-26T02:13:55;6.60;;;6.55;;
73132;SDS011;61320;52.008;4.530;2023-06-26T02:16:20;6.58;;;6.58;;
73132;SDS011;61320;52.008;4.530;2023-06-26T02:18:45;6.42;;;6.40;;
73132;SDS011;61320;52.008;4.530;2023-06-26T02:21:11;6.36;;;6.32;;
73132;SDS011;61320;52.008;4.530;2023-06-26T02:23:37;6.33;;;6.32;;
73132;SDS011;61320;52.008;4.530;2023-06-26T02:26:03;6.03;;;6.00;;
73132;SDS011;61320;52.008;4.530;2023-06-26T02:28:28;6.24;;;6.24;;
73132;SDS011;61320;52.008;4.530;2023-06-26T02:30:56;6.08;;;6.05;;
73132;SDS011;61320;52.008;4.530;2023-06-26T02:33:22;6.09;;;6.03;;
73132;SDS011;61320;52.008;4.530;2023-06-26T02:35:47;6.35;;;6.27;;
73132;SDS011;61320;52.008;4.530;2023-06-26T02:38:13;6.57;;;6.49;;
73132;SDS011;61320;52.008;4.530;2023-06-26T02:40:38;6.31;;;6.16;;
73132;SDS011;61320;52.008;4.530;2023-06-26T02:43:04;6.63;;;6.48;;
73132;SDS011;61320;52.008;4.530;2023-06-26T02:45:29;6.59;;;6.43;;
73132;SDS011;61320;52.008;4.530;2023-06-26T02:47:54;6.75;;;6.53;;
73132;SDS011;61320;52.008;4.530;2023-06-26T02:50:20;6.72;;;6.49;;
73132;SDS011;61320;52.008;4.530;2023-06-26T02:52:45;6.22;;;6.13;;
73132;SDS011;61320;52.008;4.530;2023-06-26T02:55:13;6.57;;;6.37;;
73132;SDS011;61320;52.008;4.530;2023-06-26T02:57:38;6.53;;;6.46;;
73132;SDS011;61320;52.008;4.530;2023-06-26T03:00:04;6.59;;;6.34;;
73132;SDS011;61320;52.008;4.530;2023-06-26T03:02:33;7.02;;;6.68;;
73132;SDS011;61320;52.008;4.530;2023-06-26T03:04:58;6.78;;;6.55;;
73132;SDS011;61320;52.008;4.530;2023-06-26T03:07:24;6.41;;;6.34;;
73132;SDS011;61320;52.008;4.530;2023-06-26T03:09:49;6.73;;;6.60;;
73132;SDS011;61320;52.008;4.530;2023-06-26T03:12:14;6.81;;;6.59;;
73132;SDS011;61320;52.008;4.530;2023-06-26T03:14:40;7.15;;;6.83;;
73132;SDS011;61320;52.008;4.530;2023-06-26T03:17:05;7.26;;;6.93;;
73132;SDS011;61320;52.008;4.530;2023-06-26T03:19:32;7.30;;;6.98;;
73132;SDS011;61320;52.008;4.530;2023-06-26T03:21:57;7.33;;;6.99;;
73132;SDS011;61320;52.008;4.530;2023-06-26T03:24:23;7.34;;;7.01;;
73132;SDS011;61320;52.008;4.530;2023-06-26T03:26:48;7.51;;;6.98;;
73132;SDS011;61320;52.008;4.530;2023-06-26T03:29:14;7.81;;;7.33;;
73132;SDS011;61320;52.008;4.530;2023-06-26T03:31:39;7.12;;;6.79;;
73132;SDS011;61320;52.008;4.530;2023-06-26T03:34:04;6.82;;;6.60;;
73132;SDS011;61320;52.008;4.530;2023-06-26T03:36:30;6.58;;;6.48;;
73132;SDS011;61320;52.008;4.530;2023-06-26T03:38:55;7.08;;;6.86;;
73132;SDS011;61320;52.008;4.530;2023-06-26T03:41:22;7.23;;;6.93;;
73132;SDS011;61320;52.008;4.530;2023-06-26T03:43:48;6.75;;;6.46;;
73132;SDS011;61320;52.008;4.530;2023-06-26T03:46:13;6.71;;;6.48;;
73132;SDS011;61320;52.008;4.530;2023-06-26T03:48:39;6.39;;;6.26;;
73132;SDS011;61320;52.008;4.530;2023-06-26T03:51:05;6.49;;;6.42;;
73132;SDS011;61320;52.008;4.530;2023-06-26T03:53:32;6.64;;;6.49;;
73132;SDS011;61320;52.008;4.530;2023-06-26T03:55:57;6.57;;;6.43;;
73132;SDS011;61320;52.008;4.530;2023-06-26T03:58:23;6.68;;;6.48;;
73132;SDS011;61320;52.008;4.530;2023-06-26T04:00:48;6.20;;;6.04;;
73132;SDS011;61320;52.008;4.530;2023-06-26T04:03:14;6.01;;;5.90;;
73132;SDS011;61320;52.008;4.530;2023-06-26T04:05:39;6.42;;;6.24;;
73132;SDS011;61320;52.008;4.530;2023-06-26T04:08:05;6.57;;;6.43;;
73132;SDS011;61320;52.008;4.530;2023-06-26T04:10:30;6.27;;;6.19;;
73132;SDS011;61320;52.008;4.530;2023-06-26T04:12:55;6.33;;;6.14;;
73132;SDS011;61320;52.008;4.530;2023-06-26T04:15:21;5.77;;;5.69;;
73132;SDS011;61320;52.008;4.530;2023-06-26T04:17:47;6.06;;;6.03;;
73132;SDS011;61320;52.008;4.530;2023-06-26T04:20:12;6.28;;;6.27;;
73132;SDS011;61320;52.008;4.530;2023-06-26T04:22:38;6.58;;;6.39;;
73132;SDS011;61320;52.008;4.530;2023-06-26T04:25:03;6.58;;;6.39;;
73132;SDS011;61320;52.008;4.530;2023-06-26T04:27:29;6.01;;;5.87;;
73132;SDS011;61320;52.008;4.530;2023-06-26T04:29:55;6.31;;;6.17;;
73132;SDS011;61320;52.008;4.530;2023-06-26T04:32:21;6.23;;;6.03;;
73132;SDS011;61320;52.008;4.530;2023-06-26T04:34:46;6.08;;;6.03;;
73132;SDS011;61320;52.008;4.530;2023-06-26T04:37:13;5.81;;;5.75;;
73132;SDS011;61320;52.008;4.530;2023-06-26T04:39:41;5.85;;;5.80;;
73132;SDS011;61320;52.008;4.530;2023-06-26T04:42:07;5.35;;;5.32;;
73132;SDS011;61320;52.008;4.530;2023-06-26T04:44:32;5.30;;;5.23;;
73132;SDS011;61320;52.008;4.530;2023-06-26T04:46:58;4.88;;;4.82;;
73132;SDS011;61320;52.008;4.530;2023-06-26T04:49:24;4.88;;;4.88;;
73132;SDS011;61320;52.008;4.530;2023-06-26T04:51:49;4.67;;;4.66;;
73132;SDS011;61320;52.008;4.530;2023-06-26T04:54:16;4.65;;;4.61;;
73132;SDS011;61320;52.008;4.530;2023-06-26T04:56:41;4.47;;;4.43;;
73132;SDS011;61320;52.008;4.530;2023-06-26T04:59:08;4.98;;;4.92;;
73132;SDS011;61320;52.008;4.530;2023-06-26T05:01:38;4.62;;;4.58;;
73132;SDS011;61320;52.008;4.530;2023-06-26T05:04:05;4.95;;;4.94;;
73132;SDS011;61320;52.008;4.530;2023-06-26T05:06:31;4.87;;;4.84;;
73132;SDS011;61320;52.008;4.530;2023-06-26T05:08:56;4.79;;;4.79;;
73132;SDS011;61320;52.008;4.530;2023-06-26T05:11:22;4.92;;;4.92;;
73132;SDS011;61320;52.008;4.530;2023-06-26T05:13:48;5.36;;;5.36;;
73132;SDS011;61320;52.008;4.530;2023-06-26T05:16:14;4.73;;;4.73;;
73132;SDS011;61320;52.008;4.530;2023-06-26T05:18:40;4.65;;;4.65;;
73132;SDS011;61320;52.008;4.530;2023-06-26T05:21:05;5.13;;;5.13;;
73132;SDS011;61320;52.008;4.530;2023-06-26T05:23:32;5.02;;;5.02;;
73132;SDS011;61320;52.008;4.530;2023-06-26T05:26:02;5.08;;;5.08;;
73132;SDS011;61320;52.008;4.530;2023-06-26T05:28:29;4.92;;;4.92;;
73132;SDS011;61320;52.008;4.530;2023-06-26T05:30:58;5.08;;;5.08;;
73132;SDS011;61320;52.008;4.530;2023-06-26T05:33:27;4.47;;;4.47;;
73132;SDS011;61320;52.008;4.530;2023-06-26T05:35:53;4.09;;;4.09;;
73132;SDS011;61320;52.008;4.530;2023-06-26T05:38:20;3.73;;;3.73;;
73132;SDS011;61320;52.008;4.530;2023-06-26T05:40:46;3.31;;;3.31;;
73132;SDS011;61320;52.008;4.530;2023-06-26T05:43:12;3.63;;;3.63;;
73132;SDS011;61320;52.008;4.530;2023-06-26T05:45:38;3.33;;;3.33;;
73132;SDS011;61320;52.008;4.530;2023-06-26T05:48:03;3.36;;;3.34;;
73132;SDS011;61320;52.008;4.530;2023-06-26T05:50:29;2.94;;;2.92;;
73132;SDS011;61320;52.008;4.530;2023-06-26T05:52:55;2.97;;;2.95;;
73132;SDS011;61320;52.008;4.530;2023-06-26T05:55:21;2.95;;;2.88;;
73132;SDS011;61320;52.008;4.530;2023-06-26T05:57:47;2.58;;;2.53;;
73132;SDS011;61320;52.008;4.530;2023-06-26T06:00:13;2.44;;;2.40;;
73132;SDS011;61320;52.008;4.530;2023-06-26T06:02:39;2.78;;;2.69;;
73132;SDS011;61320;52.008;4.530;2023-06-26T06:05:06;2.38;;;2.28;;
73132;SDS011;61320;52.008;4.530;2023-06-26T06:07:32;2.33;;;2.21;;
73132;SDS011;61320;52.008;4.530;2023-06-26T06:09:58;2.46;;;2.33;;
73132;SDS011;61320;52.008;4.530;2023-06-26T06:12:24;2.18;;;2.07;;
73132;SDS011;61320;52.008;4.530;2023-06-26T06:14:51;2.14;;;2.03;;
73132;SDS011;61320;52.008;4.530;2023-06-26T06:17:17;2.32;;;2.21;;
73132;SDS011;61320;52.008;4.530;2023-06-26T06:19:42;2.27;;;2.15;;
73132;SDS011;61320;52.008;4.530;2023-06-26T06:22:08;2.16;;;2.05;;
73132;SDS011;61320;52.008;4.530;2023-06-26T06:24:33;2.28;;;2.13;;
73132;SDS011;61320;52.008;4.530;2023-06-26T06:26:59;2.11;;;1.96;;
73132;SDS011;61320;52.008;4.530;2023-06-26T06:29:24;2.26;;;2.09;;
73132;SDS011;61320;52.008;4.530;2023-06-26T06:31:50;2.31;;;2.11;;
73132;SDS011;61320;52.008;4.530;2023-06-26T06:34:16;2.73;;;2.45;;
73132;SDS011;61320;52.008;4.530;2023-06-26T06:36:42;2.59;;;2.26;;
73132;SDS011;61320;52.008;4.530;2023-06-26T06:39:08;2.64;;;2.32;;
73132;SDS011;61320;52.008;4.530;2023-06-26T06:41:34;2.63;;;2.28;;
73132;SDS011;61320;52.008;4.530;2023-06-26T06:43:59;2.92;;;2.58;;
73132;SDS011;61320;52.008;4.530;2023-06-26T06:46:25;2.58;;;2.27;;
73132;SDS011;61320;52.008;4.530;2023-06-26T06:48:52;2.54;;;2.24;;
73132;SDS011;61320;52.008;4.530;2023-06-26T06:51:18;2.45;;;2.23;;
73132;SDS011;61320;52.008;4.530;2023-06-26T06:53:43;2.39;;;2.20;;
73132;SDS011;61320;52.008;4.530;2023-06-26T06:56:09;2.65;;;2.43;;
73132;SDS011;61320;52.008;4.530;2023-06-26T06:58:34;2.53;;;2.29;;
73132;SDS011;61320;52.008;4.530;2023-06-26T07:01:01;2.92;;;2.60;;
73132;SDS011;61320;52.008;4.530;2023-06-26T07:03:27;2.57;;;2.36;;
73132;SDS011;61320;52.008;4.530;2023-06-26T07:05:53;3.26;;;2.89;;
73132;SDS011;61320;52.008;4.530;2023-06-26T07:08:18;3.01;;;2.62;;
73132;SDS011;61320;52.008;4.530;2023-06-26T07:10:44;2.68;;;2.38;;
73132;SDS011;61320;52.008;4.530;2023-06-26T07:13:09;2.61;;;2.34;;
73132;SDS011;61320;52.008;4.530;2023-06-26T07:15:35;2.89;;;2.57;;
73132;SDS011;61320;52.008;4.530;2023-06-26T07:18:00;2.69;;;2.41;;
73132;SDS011;61320;52.008;4.530;2023-06-26T07:20:26;2.82;;;2.51;;
73132;SDS011;61320;52.008;4.530;2023-06-26T07:22:52;2.68;;;2.40;;
73132;SDS011;61320;52.008;4.530;2023-06-26T07:25:18;2.66;;;2.40;;
73132;SDS011;61320;52.008;4.530;2023-06-26T07:27:43;2.65;;;2.39;;
73132;SDS011;61320;52.008;4.530;2023-06-26T07:30:10;2.82;;;2.53;;
73132;SDS011;61320;52.008;4.530;2023-06-26T07:32:36;2.88;;;2.53;;
73132;SDS011;61320;52.008;4.530;2023-06-26T07:35:02;2.85;;;2.48;;
73132;SDS011;61320;52.008;4.530;2023-06-26T07:37:28;3.25;;;2.74;;
73132;SDS011;61320;52.008;4.530;2023-06-26T07:39:54;3.05;;;2.52;;
73132;SDS011;61320;52.008;4.530;2023-06-26T07:42:19;2.96;;;2.48;;
73132;SDS011;61320;52.008;4.530;2023-06-26T07:44:45;2.80;;;2.36;;
73132;SDS011;61320;52.008;4.530;2023-06-26T07:47:11;2.91;;;2.53;;
73132;SDS011;61320;52.008;4.530;2023-06-26T07:49:36;2.54;;;2.26;;
73132;SDS011;61320;52.008;4.530;2023-06-26T07:52:03;2.89;;;2.53;;
73132;SDS011;61320;52.008;4.530;2023-06-26T07:54:29;2.90;;;2.52;;
73132;SDS011;61320;52.008;4.530;2023-06-26T07:56:55;2.90;;;2.53;;
73132;SDS011;61320;52.008;4.530;2023-06-26T07:59:23;2.96;;;2.65;;
73132;SDS011;61320;52.008;4.530;2023-06-26T08:01:50;2.99;;;2.67;;
73132;SDS011;61320;52.008;4.530;2023-06-26T08:04:20;2.90;;;2.59;;
73132;SDS011;61320;52.008;4.530;2023-06-26T08:06:48;2.55;;;2.30;;
73132;SDS011;61320;52.008;4.530;2023-06-26T08:09:14;2.63;;;2.40;;
73132;SDS011;61320;52.008;4.530;2023-06-26T08:11:41;2.79;;;2.54;;
73132;SDS011;61320;52.008;4.530;2023-06-26T08:14:06;2.37;;;2.16;;
73132;SDS011;61320;52.008;4.530;2023-06-26T08:16:32;2.30;;;2.09;;
73132;SDS011;61320;52.008;4.530;2023-06-26T08:18:57;2.38;;;2.17;;
73132;SDS011;61320;52.008;4.530;2023-06-26T08:21:23;2.66;;;2.47;;
73132;SDS011;61320;52.008;4.530;2023-06-26T08:23:48;2.26;;;2.12;;
73132;SDS011;61320;52.008;4.530;2023-06-26T08:26:14;2.38;;;2.21;;
73132;SDS011;61320;52.008;4.530;2023-06-26T08:28:39;2.39;;;2.25;;
73132;SDS011;61320;52.008;4.530;2023-06-26T08:31:05;2.65;;;2.52;;
73132;SDS011;61320;52.008;4.530;2023-06-26T08:33:30;2.36;;;2.26;;
73132;SDS011;61320;52.008;4.530;2023-06-26T08:35:56;2.43;;;2.32;;
73132;SDS011;61320;52.008;4.530;2023-06-26T08:38:21;2.38;;;2.29;;
73132;SDS011;61320;52.008;4.530;2023-06-26T08:40:47;2.25;;;2.16;;
73132;SDS011;61320;52.008;4.530;2023-06-26T08:43:13;2.35;;;2.26;;
73132;SDS011;61320;52.008;4.530;2023-06-26T08:45:38;2.35;;;2.25;;
73132;SDS011;61320;52.008;4.530;2023-06-26T08:48:04;2.45;;;2.32;;
73132;SDS011;61320;52.008;4.530;2023-06-26T08:50:33;2.70;;;2.53;;
73132;SDS011;61320;52.008;4.530;2023-06-26T08:55:41;2.59;;;2.44;;
73132;SDS011;61320;52.008;4.530;2023-06-26T08:58:08;2.38;;;2.23;;
73132;SDS011;61320;52.008;4.530;2023-06-26T09:00:34;2.57;;;2.39;;
73132;SDS011;61320;52.008;4.530;2023-06-26T09:03:00;2.53;;;2.36;;
73132;SDS011;61320;52.008;4.530;2023-06-26T09:05:28;2.44;;;2.30;;
73132;SDS011;61320;52.008;4.530;2023-06-26T09:07:54;2.25;;;2.14;;
73132;SDS011;61320;52.008;4.530;2023-06-26T09:10:22;2.37;;;2.25;;
73132;SDS011;61320;52.008;4.530;2023-06-26T09:12:48;2.39;;;2.25;;
73132;SDS011;61320;52.008;4.530;2023-06-26T09:15:14;2.48;;;2.30;;
73132;SDS011;61320;52.008;4.530;2023-06-26T09:17:40;2.48;;;2.31;;
73132;SDS011;61320;52.008;4.530;2023-06-26T09:20:08;2.48;;;2.30;;
73132;SDS011;61320;52.008;4.530;2023-06-26T09:22:40;2.41;;;2.23;;
73132;SDS011;61320;52.008;4.530;2023-06-26T09:25:08;2.62;;;2.38;;
73132;SDS011;61320;52.008;4.530;2023-06-26T09:27:35;2.72;;;2.47;;
73132;SDS011;61320;52.008;4.530;2023-06-26T09:30:04;2.82;;;2.54;;
73132;SDS011;61320;52.008;4.530;2023-06-26T09:32:35;2.97;;;2.68;;
73132;SDS011;61320;52.008;4.530;2023-06-26T09:35:02;2.80;;;2.55;;
73132;SDS011;61320;52.008;4.530;2023-06-26T09:37:28;2.98;;;2.76;;
73132;SDS011;61320;52.008;4.530;2023-06-26T09:39:54;3.24;;;2.94;;
73132;SDS011;61320;52.008;4.530;2023-06-26T09:42:20;3.02;;;2.75;;
73132;SDS011;61320;52.008;4.530;2023-06-26T09:44:46;2.59;;;2.42;;
73132;SDS011;61320;52.008;4.530;2023-06-26T09:47:15;2.79;;;2.59;;
73132;SDS011;61320;52.008;4.530;2023-06-26T09:49:42;2.90;;;2.75;;
73132;SDS011;61320;52.008;4.530;2023-06-26T09:52:08;2.84;;;2.73;;
73132;SDS011;61320;52.008;4.530;2023-06-26T09:54:34;2.67;;;2.66;;
73132;SDS011;61320;52.008;4.530;2023-06-26T09:57:08;2.82;;;2.76;;
73132;SDS011;61320;52.008;4.530;2023-06-26T09:59:34;2.66;;;2.65;;
73132;SDS011;61320;52.008;4.530;2023-06-26T10:02:00;2.87;;;2.75;;
73132;SDS011;61320;52.008;4.530;2023-06-26T10:04:26;2.81;;;2.75;;
73132;SDS011;61320;52.008;4.530;2023-06-26T10:06:51;2.84;;;2.66;;
73132;SDS011;61320;52.008;4.530;2023-06-26T10:09:21;2.75;;;2.55;;
73132;SDS011;61320;52.008;4.530;2023-06-26T10:14:19;2.33;;;2.19;;
73132;SDS011;61320;52.008;4.530;2023-06-26T10:16:48;2.17;;;2.11;;
73132;SDS011;61320;52.008;4.530;2023-06-26T10:19:16;2.11;;;2.11;;
73132;SDS011;61320;52.008;4.530;2023-06-26T10:21:49;2.23;;;2.09;;
73132;SDS011;61320;52.008;4.530;2023-06-26T10:24:17;2.53;;;2.34;;
73132;SDS011;61320;52.008;4.530;2023-06-26T10:26:45;2.56;;;2.35;;
73132;SDS011;61320;52.008;4.530;2023-06-26T10:29:17;2.26;;;2.06;;
73132;SDS011;61320;52.008;4.530;2023-06-26T10:31:48;2.09;;;1.94;;
73132;SDS011;61320;52.008;4.530;2023-06-26T10:34:18;2.10;;;1.93;;
73132;SDS011;61320;52.008;4.530;2023-06-26T10:36:43;2.00;;;1.83;;
73132;SDS011;61320;52.008;4.530;2023-06-26T10:39:09;2.06;;;1.87;;
73132;SDS011;61320;52.008;4.530;2023-06-26T10:41:38;2.11;;;1.94;;
73132;SDS011;61320;52.008;4.530;2023-06-26T10:46:51;2.01;;;1.84;;
73132;SDS011;61320;52.008;4.530;2023-06-26T10:49:18;1.86;;;1.74;;
73132;SDS011;61320;52.008;4.530;2023-06-26T10:51:46;2.12;;;1.95;;
73132;SDS011;61320;52.008;4.530;2023-06-26T10:54:17;1.77;;;1.61;;
73132;SDS011;61320;52.008;4.530;2023-06-26T10:56:49;1.69;;;1.56;;
73132;SDS011;61320;52.008;4.530;2023-06-26T10:59:21;1.57;;;1.45;;
73132;SDS011;61320;52.008;4.530;2023-06-26T11:02:02;1.75;;;1.60;;
73132;SDS011;61320;52.008;4.530;2023-06-26T11:04:37;1.87;;;1.72;;
73132;SDS011;61320;52.008;4.530;2023-06-26T11:07:14;1.56;;;1.44;;
73132;SDS011;61320;52.008;4.530;2023-06-26T11:09:54;1.77;;;1.65;;
73132;SDS011;61320;52.008;4.530;2023-06-26T11:15:16;1.77;;;1.67;;
73132;SDS011;61320;52.008;4.530;2023-06-26T11:17:44;1.76;;;1.64;;
73132;SDS011;61320;52.008;4.530;2023-06-26T11:20:11;1.76;;;1.64;;
73132;SDS011;61320;52.008;4.530;2023-06-26T11:22:39;1.80;;;1.67;;
73132;SDS011;61320;52.008;4.530;2023-06-26T11:25:07;1.79;;;1.65;;
73132;SDS011;61320;52.008;4.530;2023-06-26T11:27:43;1.71;;;1.57;;
73132;SDS011;61320;52.008;4.530;2023-06-26T11:30:10;1.99;;;1.84;;
73132;SDS011;61320;52.008;4.530;2023-06-26T11:32:47;1.64;;;1.50;;
73132;SDS011;61320;52.008;4.530;2023-06-26T11:35:12;1.78;;;1.64;;
73132;SDS011;61320;52.008;4.530;2023-06-26T11:37:38;1.72;;;1.61;;
73132;SDS011;61320;52.008;4.530;2023-06-26T11:40:16;1.60;;;1.50;;
73132;SDS011;61320;52.008;4.530;2023-06-26T11:42:41;1.28;;;1.20;;
73132;SDS011;61320;52.008;4.530;2023-06-26T11:45:08;1.49;;;1.39;;
73132;SDS011;61320;52.008;4.530;2023-06-26T11:47:34;1.72;;;1.62;;
73132;SDS011;61320;52.008;4.530;2023-06-26T11:50:00;1.42;;;1.34;;
73132;SDS011;61320;52.008;4.530;2023-06-26T11:52:29;1.41;;;1.33;;
73132;SDS011;61320;52.008;4.530;2023-06-26T11:54:54;1.34;;;1.27;;
73132;SDS011;61320;52.008;4.530;2023-06-26T11:57:20;1.32;;;1.26;;
73132;SDS011;61320;52.008;4.530;2023-06-26T11:59:45;1.50;;;1.41;;
73132;SDS011;61320;52.008;4.530;2023-06-26T12:02:12;1.74;;;1.64;;
73132;SDS011;61320;52.008;4.530;2023-06-26T12:04:43;1.58;;;1.51;;
73132;SDS011;61320;52.008;4.530;2023-06-26T12:07:09;1.46;;;1.40;;
73132;SDS011;61320;52.008;4.530;2023-06-26T12:09:38;1.71;;;1.64;;
73132;SDS011;61320;52.008;4.530;2023-06-26T12:12:06;1.65;;;1.58;;
73132;SDS011;61320;52.008;4.530;2023-06-26T12:14:33;1.58;;;1.52;;
73132;SDS011;61320;52.008;4.530;2023-06-26T12:17:13;1.68;;;1.59;;
73132;SDS011;61320;52.008;4.530;2023-06-26T12:19:42;1.77;;;1.64;;
73132;SDS011;61320;52.008;4.530;2023-06-26T12:22:08;1.93;;;1.81;;
73132;SDS011;61320;52.008;4.530;2023-06-26T12:24:36;1.74;;;1.67;;
73132;SDS011;61320;52.008;4.530;2023-06-26T12:27:14;1.54;;;1.48;;
73132;SDS011;61320;52.008;4.530;2023-06-26T12:29:50;1.96;;;1.87;;
73132;SDS011;61320;52.008;4.530;2023-06-26T12:32:18;1.91;;;1.80;;
73132;SDS011;61320;52.008;4.530;2023-06-26T12:34:46;2.05;;;1.91;;
73132;SDS011;61320;52.008;4.530;2023-06-26T12:37:13;1.77;;;1.66;;
73132;SDS011;61320;52.008;4.530;2023-06-26T12:42:12;2.05;;;1.90;;
73132;SDS011;61320;52.008;4.530;2023-06-26T12:44:38;1.89;;;1.75;;
73132;SDS011;61320;52.008;4.530;2023-06-26T12:47:04;1.87;;;1.75;;
73132;SDS011;61320;52.008;4.530;2023-06-26T12:52:00;1.86;;;1.74;;
73132;SDS011;61320;52.008;4.530;2023-06-26T12:54:26;1.73;;;1.67;;
73132;SDS011;61320;52.008;4.530;2023-06-26T12:56:52;1.86;;;1.80;;
73132;SDS011;61320;52.008;4.530;2023-06-26T12:59:17;1.66;;;1.65;;
73132;SDS011;61320;52.008;4.530;2023-06-26T13:01:43;1.60;;;1.55;;
73132;SDS011;61320;52.008;4.530;2023-06-26T13:04:08;1.80;;;1.80;;
73132;SDS011;61320;52.008;4.530;2023-06-26T13:06:35;1.76;;;1.75;;
73132;SDS011;61320;52.008;4.530;2023-06-26T13:09:01;1.72;;;1.72;;
73132;SDS011;61320;52.008;4.530;2023-06-26T13:11:29;1.71;;;1.70;;
73132;SDS011;61320;52.008;4.530;2023-06-26T13:13:55;1.71;;;1.62;;
73132;SDS011;61320;52.008;4.530;2023-06-26T13:16:20;1.70;;;1.61;;
73132;SDS011;61320;52.008;4.530;2023-06-26T13:18:45;1.73;;;1.63;;
73132;SDS011;61320;52.008;4.530;2023-06-26T13:21:11;1.77;;;1.67;;
73132;SDS011;61320;52.008;4.530;2023-06-26T13:23:36;1.84;;;1.72;;
73132;SDS011;61320;52.008;4.530;2023-06-26T13:26:02;1.82;;;1.70;;
73132;SDS011;61320;52.008;4.530;2023-06-26T13:28:27;1.92;;;1.79;;
73132;SDS011;61320;52.008;4.530;2023-06-26T13:30:52;1.80;;;1.75;;
73132;SDS011;61320;52.008;4.530;2023-06-26T13:33:18;1.68;;;1.63;;
73132;SDS011;61320;52.008;4.530;2023-06-26T13:35:43;1.55;;;1.55;;
73132;SDS011;61320;52.008;4.530;2023-06-26T13:38:09;1.52;;;1.52;;
73132;SDS011;61320;52.008;4.530;2023-06-26T13:40:34;1.43;;;1.43;;
73132;SDS011;61320;52.008;4.530;2023-06-26T13:43:00;1.67;;;1.66;;
73132;SDS011;61320;52.008;4.530;2023-06-26T13:45:25;1.57;;;1.52;;
73132;SDS011;61320;52.008;4.530;2023-06-26T13:47:51;1.64;;;1.64;;
73132;SDS011;61320;52.008;4.530;2023-06-26T13:50:16;1.64;;;1.64;;
73132;SDS011;61320;52.008;4.530;2023-06-26T13:52:42;1.60;;;1.59;;
73132;SDS011;61320;52.008;4.530;2023-06-26T13:55:07;1.94;;;1.86;;
73132;SDS011;61320;52.008;4.530;2023-06-26T13:57:33;1.83;;;1.73;;
73132;SDS011;61320;52.008;4.530;2023-06-26T13:59:58;1.69;;;1.66;;
73132;SDS011;61320;52.008;4.530;2023-06-26T14:02:24;1.72;;;1.72;;
73132;SDS011;61320;52.008;4.530;2023-06-26T14:04:49;1.47;;;1.47;;
73132;SDS011;61320;52.008;4.530;2023-06-26T14:07:18;1.41;;;1.41;;
73132;SDS011;61320;52.008;4.530;2023-06-26T14:09:43;1.43;;;1.43;;
73132;SDS011;61320;52.008;4.530;2023-06-26T14:12:09;1.42;;;1.42;;
73132;SDS011;61320;52.008;4.530;2023-06-26T14:14:34;1.40;;;1.40;;
73132;SDS011;61320;52.008;4.530;2023-06-26T14:16:59;1.38;;;1.36;;
73132;SDS011;61320;52.008;4.530;2023-06-26T14:19:25;1.47;;;1.46;;
73132;SDS011;61320;52.008;4.530;2023-06-26T14:21:51;1.32;;;1.32;;
73132;SDS011;61320;52.008;4.530;2023-06-26T14:24:17;1.34;;;1.34;;
73132;SDS011;61320;52.008;4.530;2023-06-26T14:26:42;1.52;;;1.52;;
73132;SDS011;61320;52.008;4.530;2023-06-26T14:29:08;1.32;;;1.32;;
73132;SDS011;61320;52.008;4.530;2023-06-26T14:31:33;1.54;;;1.54;;
73132;SDS011;61320;52.008;4.530;2023-06-26T14:33:59;1.41;;;1.41;;
73132;SDS011;61320;52.008;4.530;2023-06-26T14:36:25;1.49;;;1.49;;
73132;SDS011;61320;52.008;4.530;2023-06-26T14:38:52;1.56;;;1.56;;
73132;SDS011;61320;52.008;4.530;2023-06-26T14:41:17;1.70;;;1.70;;
73132;SDS011;61320;52.008;4.530;2023-06-26T14:43:43;1.45;;;1.45;;
73132;SDS011;61320;52.008;4.530;2023-06-26T14:46:10;1.54;;;1.54;;
73132;SDS011;61320;52.008;4.530;2023-06-26T14:48:36;1.77;;;1.77;;
73132;SDS011;61320;52.008;4.530;2023-06-26T14:51:02;1.61;;;1.61;;
73132;SDS011;61320;52.008;4.530;2023-06-26T14:53:27;1.68;;;1.68;;
73132;SDS011;61320;52.008;4.530;2023-06-26T14:55:53;1.59;;;1.59;;
73132;SDS011;61320;52.008;4.530;2023-06-26T14:58:21;1.81;;;1.81;;
73132;SDS011;61320;52.008;4.530;2023-06-26T15:00:47;1.77;;;1.77;;
73132;SDS011;61320;52.008;4.530;2023-06-26T15:03:13;1.72;;;1.72;;
73132;SDS011;61320;52.008;4.530;2023-06-26T15:05:39;1.67;;;1.66;;
73132;SDS011;61320;52.008;4.530;2023-06-26T15:08:04;1.60;;;1.60;;
73132;SDS011;61320;52.008;4.530;2023-06-26T15:10:29;1.69;;;1.69;;